createdAt,value
2023-02-27T00:01:57.765Z,99.90
2023-02-27T00:04:26.128Z,99.90
2023-02-27T00:06:54.494Z,99.90
2023-02-27T00:09:22.795Z,99.90
2023-02-27T00:11:51.102Z,99.90
2023-02-27T00:14:19.651Z,99.90
2023-02-27T00:16:47.984Z,99.90
2023-02-27T00:19:17.702Z,99.90
2023-02-27T00:21:45.985Z,99.90
2023-02-27T00:24:14.383Z,99.90
2023-02-27T00:26:42.636Z,99.90
2023-02-27T00:29:12.244Z,99.90
2023-02-27T00:31:40.700Z,99.90
2023-02-27T00:34:09.026Z,99.90
2023-02-27T00:36:39.051Z,99.90
2023-02-27T00:39:07.473Z,99.90
2023-02-27T00:41:35.762Z,99.90
2023-02-27T00:44:04.137Z,99.90
2023-02-27T00:46:32.427Z,99.90
2023-02-27T00:49:00.827Z,99.90
2023-02-27T00:51:29.109Z,99.90
2023-02-27T00:53:58.788Z,99.90
2023-02-27T00:56:27.314Z,99.90
2023-02-27T00:58:55.848Z,99.90
2023-02-27T01:01:26.877Z,99.90
2023-02-27T01:03:57.775Z,99.90
2023-02-27T01:06:26.100Z,99.90
2023-02-27T01:08:56.887Z,99.90
2023-02-27T01:11:27.991Z,99.90
2023-02-27T01:13:57.108Z,99.90
2023-02-27T01:16:25.679Z,99.90
2023-02-27T01:18:54.448Z,99.90
2023-02-27T01:21:25.396Z,99.90
2023-02-27T01:23:54.070Z,99.90
2023-02-27T01:26:22.430Z,99.90
2023-02-27T01:28:52.163Z,99.90
2023-02-27T01:31:22.735Z,99.90
2023-02-27T01:33:51.020Z,99.90
2023-02-27T01:36:19.419Z,99.90
2023-02-27T01:38:47.786Z,99.90
2023-02-27T01:41:16.128Z,99.90
2023-02-27T01:44:00.396Z,99.90
2023-02-27T01:46:30.113Z,99.90
2023-02-27T01:49:00.675Z,99.90
2023-02-27T01:51:33.418Z,99.90
2023-02-27T01:54:05.277Z,99.90
2023-02-27T01:56:34.167Z,99.90
2023-02-27T01:59:07.929Z,99.90
2023-02-27T02:01:37.488Z,99.90
2023-02-27T02:04:13.754Z,99.90
2023-02-27T02:06:46.452Z,99.90
2023-02-27T02:09:17.318Z,99.90
2023-02-27T02:11:46.137Z,99.90
2023-02-27T02:14:19.742Z,99.90
2023-02-27T02:17:03.792Z,99.90
2023-02-27T02:20:01.434Z,99.90
2023-02-27T02:23:12.442Z,99.90
2023-02-27T02:26:06.435Z,99.90
2023-02-27T02:29:09.413Z,99.90
2023-02-27T02:32:09.892Z,99.90
2023-02-27T02:35:06.182Z,99.90
2023-02-27T02:38:06.759Z,99.90
2023-02-27T02:40:41.423Z,99.90
2023-02-27T02:43:15.756Z,99.90
2023-02-27T02:45:53.065Z,99.90
2023-02-27T02:48:27.615Z,99.90
2023-02-27T02:51:02.319Z,99.90
2023-02-27T02:53:37.905Z,99.90
2023-02-27T02:56:17.652Z,99.90
2023-02-27T02:58:50.026Z,99.90
2023-02-27T03:01:22.672Z,99.90
2023-02-27T03:03:56.939Z,99.90
2023-02-27T03:06:30.912Z,99.90
2023-02-27T03:09:06.632Z,99.90
2023-02-27T03:11:41.379Z,99.90
2023-02-27T03:14:14.753Z,99.90
2023-02-27T03:16:46.137Z,99.90
2023-02-27T03:19:18.701Z,99.90
2023-02-27T03:21:52.505Z,99.90
2023-02-27T03:24:29.301Z,99.90
2023-02-27T03:27:02.970Z,99.90
2023-02-27T03:29:39.839Z,99.90
2023-02-27T03:32:13.504Z,99.90
2023-02-27T03:34:43.901Z,99.90
2023-02-27T03:37:24.046Z,99.90
2023-02-27T03:39:58.371Z,99.90
2023-02-27T03:42:35.697Z,99.90
2023-02-27T03:45:21.498Z,99.90
2023-02-27T03:47:50.003Z,99.90
2023-02-27T03:50:18.755Z,99.90
2023-02-27T03:52:47.562Z,99.90
2023-02-27T03:55:19.779Z,99.90
2023-02-27T03:57:51.048Z,99.90
2023-02-27T04:00:22.387Z,99.90
2023-02-27T04:02:52.639Z,99.90
2023-02-27T04:05:24.932Z,99.90
2023-02-27T04:08:09.169Z,99.90
2023-02-27T04:10:50.152Z,99.90
2023-02-27T04:13:45.462Z,99.90
2023-02-27T04:16:45.974Z,99.90
2023-02-27T04:19:28.785Z,99.90
2023-02-27T04:22:05.255Z,99.90
2023-02-27T04:24:38.590Z,99.90
2023-02-27T04:27:19.364Z,99.90
2023-02-27T04:29:56.601Z,99.90
2023-02-27T04:32:34.351Z,99.90
2023-02-27T04:35:07.188Z,99.90
2023-02-27T04:37:41.792Z,99.90
2023-02-27T04:40:13.629Z,99.90
2023-02-27T04:42:47.090Z,99.90
2023-02-27T04:45:19.691Z,99.90
2023-02-27T04:47:54.700Z,99.90
2023-02-27T04:50:28.919Z,99.90
2023-02-27T04:53:03.666Z,99.90
2023-02-27T04:55:37.293Z,99.90
2023-02-27T04:58:11.856Z,99.90
2023-02-27T05:00:45.471Z,99.90
2023-02-27T05:03:19.428Z,99.90
2023-02-27T05:05:49.587Z,99.90
2023-02-27T05:08:25.169Z,99.90
2023-02-27T05:10:59.454Z,99.90
2023-02-27T05:13:33.353Z,99.90
2023-02-27T05:16:09.493Z,99.90
2023-02-27T05:18:37.997Z,99.90
2023-02-27T05:21:13.796Z,99.90
2023-02-27T05:23:49.982Z,99.90
2023-02-27T05:26:23.380Z,99.90
2023-02-27T05:28:59.581Z,99.90
2023-02-27T05:31:35.537Z,99.90
2023-02-27T05:34:11.314Z,99.90
2023-02-27T05:36:43.803Z,99.90
2023-02-27T05:39:13.319Z,99.90
2023-02-27T05:41:47.982Z,99.90
2023-02-27T05:44:20.034Z,99.90
2023-02-27T05:46:55.727Z,99.90
2023-02-27T05:49:28.798Z,99.90
2023-02-27T05:52:00.131Z,99.90
2023-02-27T05:54:35.057Z,99.90
2023-02-27T05:57:05.781Z,99.90
2023-02-27T05:59:43.622Z,99.90
2023-02-27T06:02:14.096Z,99.90
2023-02-27T06:04:42.792Z,99.90
2023-02-27T06:07:11.177Z,99.90
2023-02-27T06:09:43.492Z,99.90
2023-02-27T06:12:11.897Z,99.90
2023-02-27T06:14:40.341Z,99.90
2023-02-27T06:17:12.327Z,99.90
2023-02-27T06:19:40.688Z,99.90
2023-02-27T06:22:09.026Z,99.90
2023-02-27T06:24:37.437Z,99.90
2023-02-27T06:27:05.833Z,99.90
2023-02-27T06:29:34.163Z,99.90
2023-02-27T06:32:02.506Z,99.90
2023-02-27T06:34:32.330Z,99.90
2023-02-27T06:37:02.669Z,99.90
2023-02-27T06:39:32.912Z,99.90
2023-02-27T06:42:01.242Z,99.90
2023-02-27T06:44:29.605Z,99.90
2023-02-27T06:46:58.040Z,99.90
2023-02-27T06:49:26.386Z,99.90
2023-02-27T06:51:56.085Z,99.90
2023-02-27T06:54:24.575Z,99.90
2023-02-27T06:56:52.998Z,99.90
2023-02-27T06:59:21.371Z,99.90
2023-02-27T07:01:50.169Z,99.90
2023-02-27T07:04:19.428Z,99.90
2023-02-27T07:07:36.317Z,99.90
2023-02-27T07:09:39.794Z,99.90
2023-02-27T07:12:09.132Z,99.90
2023-02-27T07:14:37.480Z,99.90
2023-02-27T07:17:06.205Z,99.90
2023-02-27T07:19:36.057Z,99.90
2023-02-27T07:22:11.327Z,99.90
2023-02-27T07:24:42.043Z,99.90
2023-02-27T07:27:10.336Z,99.90
2023-02-27T07:29:38.651Z,99.90
2023-02-27T07:32:07.008Z,99.90
2023-02-27T07:34:38.525Z,99.90
2023-02-27T07:37:07.025Z,99.90
2023-02-27T07:39:35.403Z,99.90
2023-02-27T07:42:05.236Z,99.90
2023-02-27T07:44:35.236Z,99.90
2023-02-27T07:47:03.570Z,99.90
2023-02-27T07:49:31.877Z,99.90
2023-02-27T07:52:00.183Z,99.90
2023-02-27T07:54:28.506Z,99.90
2023-02-27T07:56:56.815Z,99.90
2023-02-27T07:59:26.606Z,99.90
2023-02-27T08:01:54.976Z,99.90
2023-02-27T08:04:23.351Z,99.90
2023-02-27T08:06:51.667Z,99.90
2023-02-27T08:09:19.965Z,99.90
2023-02-27T08:11:49.232Z,99.90
2023-02-27T08:14:19.888Z,99.90
2023-02-27T08:16:49.636Z,99.90
2023-02-27T08:19:17.943Z,99.90
2023-02-27T08:21:46.209Z,99.90
2023-02-27T08:24:14.568Z,99.90
2023-02-27T08:26:42.860Z,99.90
2023-02-27T08:29:11.190Z,99.90
2023-02-27T08:31:39.565Z,99.90
2023-02-27T08:34:10.943Z,99.90
2023-02-27T08:36:39.878Z,99.90
2023-02-27T08:39:08.939Z,99.90
2023-02-27T08:41:37.696Z,99.90
2023-02-27T08:44:08.424Z,99.90
2023-02-27T08:46:36.749Z,99.90
2023-02-27T08:49:05.204Z,99.90
2023-02-27T08:51:34.825Z,99.90
2023-02-27T08:54:03.203Z,99.90
2023-02-27T08:56:33.445Z,99.90
2023-02-27T08:59:02.077Z,98.40
2023-02-27T09:01:34.609Z,96.60
2023-02-27T09:04:04.000Z,96.00
2023-02-27T09:06:33.072Z,96.50
2023-02-27T09:09:03.842Z,94.10
2023-02-27T09:11:32.146Z,90.50
2023-02-27T09:14:00.667Z,85.90
2023-02-27T09:16:29.435Z,85.00
2023-02-27T09:18:58.106Z,85.40
2023-02-27T09:21:27.557Z,84.70
2023-02-27T09:24:10.126Z,84.60
2023-02-27T09:26:50.170Z,82.50
2023-02-27T09:29:19.107Z,80.60
2023-02-27T09:31:47.555Z,81.10
2023-02-27T09:34:16.094Z,83.50
2023-02-27T09:36:44.370Z,84.40
2023-02-27T09:39:12.770Z,85.40
2023-02-27T09:41:58.346Z,86.70
2023-02-27T09:44:46.237Z,88.00
2023-02-27T09:47:20.505Z,90.30
2023-02-27T09:49:58.871Z,87.20
2023-02-27T09:52:28.104Z,83.40
2023-02-27T09:54:56.678Z,81.10
2023-02-27T09:57:38.816Z,80.30
2023-02-27T10:00:17.009Z,80.90
2023-02-27T10:02:55.585Z,79.40
2023-02-27T10:05:32.577Z,81.30
2023-02-27T10:08:10.264Z,81.50
2023-02-27T10:10:44.913Z,82.80
2023-02-27T10:13:37.762Z,82.60
2023-02-27T10:16:07.031Z,82.90
2023-02-27T10:18:42.421Z,83.30
2023-02-27T10:21:15.132Z,84.10
2023-02-27T10:23:50.900Z,84.20
2023-02-27T10:26:21.987Z,84.80
2023-02-27T10:28:51.785Z,84.50
2023-02-27T10:31:29.527Z,85.00
2023-02-27T10:33:59.294Z,85.40
2023-02-27T10:36:33.993Z,86.30
2023-02-27T10:39:08.578Z,86.50
2023-02-27T10:41:39.991Z,87.30
2023-02-27T10:44:12.047Z,87.60
2023-02-27T10:46:42.481Z,88.20
2023-02-27T10:49:19.083Z,88.50
2023-02-27T10:52:04.245Z,88.90
2023-02-27T10:54:36.830Z,89.50
2023-02-27T10:57:18.351Z,90.00
2023-02-27T10:59:55.947Z,90.20
2023-02-27T11:02:27.619Z,90.30
2023-02-27T11:04:57.560Z,90.40
2023-02-27T11:07:32.666Z,90.10
2023-02-27T11:10:16.238Z,89.80
2023-02-27T11:12:59.419Z,90.00
2023-02-27T11:15:31.816Z,90.40
2023-02-27T11:18:25.886Z,90.30
2023-02-27T11:20:54.787Z,90.40
2023-02-27T11:23:27.405Z,90.60
2023-02-27T11:26:15.217Z,90.30
2023-02-27T11:28:43.676Z,90.80
2023-02-27T11:31:20.254Z,90.80
2023-02-27T11:33:54.318Z,90.90
2023-02-27T11:36:23.836Z,90.60
2023-02-27T11:38:54.302Z,90.70
2023-02-27T11:41:30.804Z,90.80
2023-02-27T11:44:01.041Z,91.00
2023-02-27T11:46:46.495Z,90.90
2023-02-27T11:49:31.159Z,91.00
2023-02-27T11:52:09.149Z,91.00
2023-02-27T11:54:41.342Z,90.70
2023-02-27T11:57:22.286Z,90.80
2023-02-27T11:59:54.067Z,90.70
2023-02-27T12:02:39.785Z,90.90
2023-02-27T12:05:16.865Z,91.10
2023-02-27T12:07:52.749Z,91.40
2023-02-27T12:10:24.313Z,91.10
2023-02-27T12:12:59.864Z,91.30
2023-02-27T12:15:35.438Z,91.40
2023-02-27T12:18:16.120Z,91.30
2023-02-27T12:20:53.666Z,91.30
2023-02-27T12:23:27.871Z,91.40
2023-02-27T12:26:03.646Z,91.40
2023-02-27T12:28:45.402Z,91.30
2023-02-27T12:31:33.055Z,90.90
2023-02-27T12:34:10.816Z,90.90
2023-02-27T12:36:39.198Z,90.80
2023-02-27T12:39:19.593Z,90.90
2023-02-27T12:42:15.066Z,90.80
2023-02-27T12:44:58.293Z,90.90
2023-02-27T12:47:37.383Z,90.90
2023-02-27T12:50:12.893Z,90.90
2023-02-27T12:52:51.459Z,90.70
2023-02-27T12:55:24.986Z,90.60
2023-02-27T12:58:11.789Z,90.50
2023-02-27T13:00:47.303Z,90.90
2023-02-27T13:03:20.932Z,91.10
2023-02-27T13:05:58.576Z,91.20
2023-02-27T13:08:49.185Z,91.30
2023-02-27T13:11:26.639Z,91.10
2023-02-27T13:14:00.833Z,91.00
2023-02-27T13:16:34.807Z,91.30
2023-02-27T13:19:07.740Z,91.30
2023-02-27T13:21:41.104Z,91.20
2023-02-27T13:24:26.171Z,91.20
2023-02-27T13:27:00.900Z,91.40
2023-02-27T13:29:37.674Z,91.50
2023-02-27T13:32:29.975Z,91.60
2023-02-27T13:35:14.466Z,91.90
2023-02-27T13:37:55.321Z,92.10
2023-02-27T13:40:39.323Z,92.10
2023-02-27T13:43:29.927Z,91.90
2023-02-27T13:46:00.089Z,91.90
2023-02-27T13:48:49.349Z,91.70
2023-02-27T13:51:56.556Z,92.30
2023-02-27T13:54:44.262Z,92.40
2023-02-27T13:57:34.638Z,92.70
2023-02-27T14:00:08.098Z,92.80
2023-02-27T14:02:59.277Z,92.80
2023-02-27T14:05:32.990Z,92.90
2023-02-27T14:08:08.602Z,92.80
2023-02-27T14:10:40.617Z,92.90
2023-02-27T14:14:13.529Z,92.90
2023-02-27T14:17:00.668Z,92.60
2023-02-27T14:19:57.259Z,92.70
2023-02-27T14:22:44.952Z,92.80
2023-02-27T14:25:22.127Z,92.70
2023-02-27T14:27:56.525Z,92.90
2023-02-27T14:30:31.273Z,92.90
2023-02-27T14:33:08.164Z,92.90
2023-02-27T14:35:38.977Z,92.80
2023-02-27T14:38:13.304Z,92.80
2023-02-27T14:40:54.288Z,92.90
2023-02-27T14:43:33.936Z,92.80
2023-02-27T14:46:14.047Z,92.90
2023-02-27T14:48:44.314Z,93.10
2023-02-27T14:51:12.798Z,93.20
2023-02-27T14:53:41.451Z,93.40
2023-02-27T14:56:20.203Z,93.50
2023-02-27T14:59:03.454Z,93.70
2023-02-27T15:01:37.556Z,93.60
2023-02-27T15:04:08.667Z,93.60
2023-02-27T15:06:43.948Z,93.50
2023-02-27T15:09:24.274Z,93.70
2023-02-27T15:12:03.581Z,93.80
2023-02-27T15:14:36.656Z,93.80
2023-02-27T15:17:06.248Z,93.90
2023-02-27T15:19:37.346Z,94.20
2023-02-27T15:22:32.359Z,93.90
2023-02-27T15:25:08.093Z,94.10
2023-02-27T15:27:38.356Z,94.20
2023-02-27T15:30:09.775Z,94.20
2023-02-27T15:32:42.899Z,93.60
2023-02-27T15:35:19.895Z,93.50
2023-02-27T15:37:52.971Z,93.50
2023-02-27T15:40:23.575Z,93.30
2023-02-27T15:42:53.576Z,93.60
2023-02-27T15:45:24.447Z,93.70
2023-02-27T15:47:53.107Z,93.80
2023-02-27T15:50:29.448Z,93.80
2023-02-27T15:53:04.064Z,94.00
2023-02-27T15:55:34.844Z,94.20
2023-02-27T15:58:03.967Z,93.90
2023-02-27T16:00:35.875Z,94.10
2023-02-27T16:03:06.293Z,94.00
2023-02-27T16:05:41.788Z,94.10
2023-02-27T16:08:18.609Z,94.10
2023-02-27T16:10:48.208Z,94.30
2023-02-27T16:13:28.944Z,94.40
2023-02-27T16:16:03.341Z,94.50
2023-02-27T16:18:37.720Z,94.70
2023-02-27T16:21:15.751Z,94.70
2023-02-27T16:23:44.755Z,94.40
2023-02-27T16:26:28.613Z,94.40
2023-02-27T16:29:00.056Z,94.70
2023-02-27T16:31:30.976Z,94.90
2023-02-27T16:34:01.599Z,95.10
2023-02-27T16:36:33.755Z,95.30
2023-02-27T16:39:06.268Z,95.60
2023-02-27T16:41:34.644Z,95.80
2023-02-27T16:44:02.920Z,95.40
2023-02-27T16:46:31.278Z,95.30
2023-02-27T16:49:17.663Z,95.60
2023-02-27T16:51:49.477Z,95.60
2023-02-27T16:54:18.314Z,95.30
2023-02-27T16:56:49.642Z,95.30
2023-02-27T16:59:30.626Z,95.40
2023-02-27T17:02:03.353Z,95.30
2023-02-27T17:04:32.272Z,95.50
2023-02-27T17:07:04.748Z,95.60
2023-02-27T17:09:35.263Z,95.80
2023-02-27T17:12:03.692Z,95.80
2023-02-27T17:14:32.211Z,95.80
2023-02-27T17:17:00.719Z,95.70
2023-02-27T17:19:29.109Z,95.70
2023-02-27T17:21:57.630Z,95.50
2023-02-27T17:24:27.615Z,95.40
2023-02-27T17:26:55.971Z,95.70
2023-02-27T17:29:28.144Z,96.10
2023-02-27T17:31:59.664Z,96.30
2023-02-27T17:34:28.091Z,96.20
2023-02-27T17:36:56.458Z,96.20
2023-02-27T17:39:26.230Z,96.30
2023-02-27T17:41:54.882Z,96.20
2023-02-27T17:44:23.269Z,96.10
2023-02-27T17:46:52.134Z,96.10
2023-02-27T17:49:20.552Z,96.10
2023-02-27T17:51:48.990Z,96.20
2023-02-27T17:54:17.758Z,96.50
2023-02-27T17:56:47.411Z,96.20
2023-02-27T17:59:15.686Z,96.20
2023-02-27T18:01:44.137Z,96.20
2023-02-27T18:04:12.848Z,96.00
2023-02-27T18:06:41.251Z,96.10
2023-02-27T18:09:09.809Z,96.20
2023-02-27T18:11:40.636Z,96.30
2023-02-27T18:14:10.520Z,96.40
2023-02-27T18:16:39.071Z,96.50
2023-02-27T18:19:08.028Z,96.50
2023-02-27T18:21:37.168Z,96.30
2023-02-27T18:24:06.107Z,96.30
2023-02-27T18:26:37.455Z,96.40
2023-02-27T18:29:07.978Z,96.50
2023-02-27T18:31:40.269Z,96.50
2023-02-27T18:34:08.891Z,96.60
2023-02-27T18:36:38.387Z,96.50
2023-02-27T18:39:07.725Z,96.40
2023-02-27T18:41:36.974Z,96.40
2023-02-27T18:44:05.648Z,96.40
2023-02-27T18:46:39.114Z,96.60
2023-02-27T18:49:07.725Z,96.70
2023-02-27T18:51:36.271Z,96.70
2023-02-27T18:54:05.289Z,96.60
2023-02-27T18:56:33.830Z,96.50
2023-02-27T18:59:05.383Z,96.30
2023-02-27T19:01:36.692Z,96.30
2023-02-27T19:04:08.247Z,96.40
2023-02-27T19:06:40.955Z,96.60
2023-02-27T19:09:11.422Z,96.50
2023-02-27T19:11:40.119Z,96.50
2023-02-27T19:14:10.384Z,96.80
2023-02-27T19:16:38.991Z,96.90
2023-02-27T19:19:10.005Z,96.90
2023-02-27T19:21:38.522Z,97.00
2023-02-27T19:24:08.078Z,97.10
2023-02-27T19:26:36.716Z,97.30
2023-02-27T19:29:05.475Z,97.30
2023-02-27T19:31:34.025Z,97.40
2023-02-27T19:34:02.601Z,97.50
2023-02-27T19:36:32.623Z,97.60
2023-02-27T19:39:01.240Z,97.60
2023-02-27T19:41:32.450Z,97.60
2023-02-27T19:44:01.653Z,97.60
2023-02-27T19:46:35.193Z,97.80
2023-02-27T19:49:05.849Z,97.80
2023-02-27T19:51:35.627Z,97.80
2023-02-27T19:54:04.120Z,97.70
2023-02-27T19:56:32.673Z,97.80
2023-02-27T19:59:01.927Z,97.80
2023-02-27T20:01:36.307Z,97.60
2023-02-27T20:04:08.413Z,97.80
2023-02-27T20:06:42.289Z,97.90
2023-02-27T20:09:11.638Z,98.30
2023-02-27T20:11:40.457Z,98.30
2023-02-27T20:14:09.172Z,98.50
2023-02-27T20:16:37.624Z,98.60
2023-02-27T20:19:07.070Z,98.60
2023-02-27T20:21:37.569Z,98.70
2023-02-27T20:24:06.432Z,98.90
2023-02-27T20:26:37.551Z,99.00
2023-02-27T20:29:08.579Z,99.00
2023-02-27T20:31:38.465Z,99.10
2023-02-27T20:34:07.679Z,99.10
2023-02-27T20:36:38.769Z,99.20
2023-02-27T20:39:08.398Z,99.30
2023-02-27T20:41:37.085Z,99.40
2023-02-27T20:44:08.230Z,99.40
2023-02-27T20:46:39.402Z,99.50
2023-02-27T20:49:10.556Z,99.50
2023-02-27T20:51:41.557Z,99.40
2023-02-27T20:54:15.423Z,99.40
2023-02-27T20:56:46.012Z,99.50
2023-02-27T20:59:17.756Z,99.60
2023-02-27T21:01:51.585Z,99.80
2023-02-27T21:04:24.230Z,99.80
2023-02-27T21:06:54.964Z,99.80
2023-02-27T21:09:23.271Z,99.70
2023-02-27T21:11:51.713Z,99.70
2023-02-27T21:14:21.124Z,99.70
2023-02-27T21:16:54.587Z,99.90
2023-02-27T21:19:22.846Z,99.90
2023-02-27T21:21:51.340Z,99.90
2023-02-27T21:24:21.608Z,99.90
2023-02-27T21:26:49.964Z,99.90
2023-02-27T21:29:20.073Z,99.90
2023-02-27T21:31:50.180Z,99.90
2023-02-27T21:34:20.929Z,99.90
2023-02-27T21:36:50.086Z,99.90
2023-02-27T21:39:22.692Z,99.90
2023-02-27T21:41:51.334Z,99.90
2023-02-27T21:44:22.314Z,99.90
2023-02-27T21:46:50.639Z,99.90
2023-02-27T21:49:20.378Z,99.90
2023-02-27T21:51:48.778Z,99.90
2023-02-27T21:54:18.494Z,99.90
2023-02-27T21:56:49.310Z,99.90
2023-02-27T21:59:19.108Z,99.90
2023-02-27T22:01:48.417Z,99.90
2023-02-27T22:04:23.050Z,99.90
2023-02-27T22:06:52.726Z,99.90
2023-02-27T22:09:21.665Z,99.90
2023-02-27T22:11:51.516Z,99.90
2023-02-27T22:14:19.935Z,99.90
2023-02-27T22:16:48.250Z,99.90
2023-02-27T22:19:20.008Z,99.90
2023-02-27T22:21:48.825Z,99.90
2023-02-27T22:24:17.367Z,99.90
2023-02-27T22:26:47.749Z,99.90
2023-02-27T22:29:17.749Z,99.90
2023-02-27T22:31:46.176Z,99.90
2023-02-27T22:34:18.557Z,99.90
2023-02-27T22:36:48.617Z,99.90
2023-02-27T22:39:16.929Z,99.90
2023-02-27T22:41:47.497Z,99.90
2023-02-27T22:44:17.984Z,99.90
2023-02-27T22:46:48.007Z,99.90
2023-02-27T22:49:21.065Z,99.90
2023-02-27T22:51:50.953Z,99.90
2023-02-27T22:54:20.234Z,99.90
2023-02-27T22:56:51.303Z,99.90
2023-02-27T22:59:21.069Z,99.90
2023-02-27T23:01:50.508Z,99.90
2023-02-27T23:04:19.729Z,99.90
2023-02-27T23:06:48.168Z,99.90
2023-02-27T23:09:18.609Z,99.90
2023-02-27T23:11:47.795Z,99.90
2023-02-27T23:14:16.187Z,99.90
2023-02-27T23:16:46.760Z,99.90
2023-02-27T23:19:16.964Z,99.90
2023-02-27T23:21:45.460Z,99.90
2023-02-27T23:24:15.937Z,99.90
2023-02-27T23:26:46.457Z,99.90
2023-02-27T23:29:14.998Z,99.90
2023-02-27T23:31:43.415Z,99.90
2023-02-27T23:34:13.156Z,99.90
2023-02-27T23:36:41.803Z,99.90
2023-02-27T23:39:10.179Z,99.90
2023-02-27T23:41:38.510Z,99.90
2023-02-27T23:44:07.060Z,99.90
2023-02-27T23:46:35.466Z,99.90
2023-02-27T23:49:04.042Z,99.90
2023-02-27T23:51:36.459Z,99.90
2023-02-27T23:54:05.366Z,99.90
2023-02-27T23:56:33.938Z,99.90
2023-02-27T23:59:03.890Z,99.90
